Time;durP1;ratioP1;P1;durP2;ratioP2;P2;SDS_P1;SDS_P2;PMS_P1;PMS_P2;Temp;Humidity;BMP_temperature;BMP_pressure;BME280_temperature;BME280_humidity;BME280_pressure;Samples;Min_cycle;Max_cycle;Signal;HPM_P1;HPM_P2
2023/08/28 00:00:31;;;;;;;3.30;1.57;;;12.50;99.90;;;;;;5051698;28;20247;-77
2023/08/28 00:02:56;;;;;;;6.47;2.50;;;12.40;99.90;;;;;;5052705;28;20195;-77
2023/08/28 00:05:22;;;;;;;5.30;2.20;;;12.40;99.90;;;;;;5052421;28;20638;-77
2023/08/28 00:07:48;;;;;;;12.63;2.50;;;12.40;99.90;;;;;;5051273;28;20266;-77
2023/08/28 00:10:14;;;;;;;3.80;1.80;;;12.40;99.90;;;;;;5052463;28;20221;-77
2023/08/28 00:12:40;;;;;;;4.07;1.90;;;12.50;99.90;;;;;;5052469;28;20199;-77
2023/08/28 00:15:10;;;;;;;3.30;1.90;;;12.40;99.90;;;;;;5052546;28;20183;-77
2023/08/28 00:17:39;;;;;;;2.70;1.90;;;12.30;99.90;;;;;;5052552;28;20171;-77
2023/08/28 00:20:08;;;;;;;5.43;2.00;;;12.30;99.90;;;;;;5052472;28;20179;-77
2023/08/28 00:22:37;;;;;;;4.97;2.40;;;12.30;99.90;;;;;;5052304;28;20202;-77
2023/08/28 00:25:04;;;;;;;2.73;2.00;;;12.30;99.90;;;;;;5052312;28;20178;-77
2023/08/28 00:27:31;;;;;;;5.33;2.10;;;12.30;99.90;;;;;;5055818;28;20230;-77
2023/08/28 00:29:56;;;;;;;2.83;2.07;;;12.30;99.90;;;;;;5056324;28;20233;-77
2023/08/28 00:32:22;;;;;;;2.30;1.80;;;12.30;99.90;;;;;;5056185;28;20199;-77
2023/08/28 00:34:47;;;;;;;7.57;2.10;;;12.30;99.90;;;;;;5055126;28;20187;-77
2023/08/28 00:37:13;;;;;;;4.57;2.00;;;12.30;99.90;;;;;;5056203;28;20206;-77
2023/08/28 00:39:38;;;;;;;4.40;1.87;;;12.30;99.90;;;;;;5056490;28;20245;-77
2023/08/28 00:42:04;;;;;;;3.97;1.93;;;12.30;99.90;;;;;;5055784;28;20670;-76
2023/08/28 00:44:30;;;;;;;7.87;1.77;;;12.50;99.90;;;;;;5055974;28;20186;-77
2023/08/28 00:46:56;;;;;;;6.60;2.23;;;12.30;99.90;;;;;;5055955;28;20207;-77
2023/08/28 00:49:22;;;;;;;5.13;1.97;;;12.30;99.90;;;;;;5056162;28;20627;-77
2023/08/28 00:51:48;;;;;;;4.93;2.37;;;12.30;99.90;;;;;;5056477;28;20199;-76
2023/08/28 00:54:15;;;;;;;5.47;2.40;;;12.30;99.90;;;;;;5055773;28;20318;-77
2023/08/28 00:56:40;;;;;;;8.93;2.20;;;12.20;99.90;;;;;;5055920;28;20206;-77
2023/08/28 00:59:06;;;;;;;5.00;2.27;;;12.20;99.90;;;;;;5056551;28;20229;-75
2023/08/28 01:01:32;;;;;;;6.97;2.23;;;12.20;99.90;;;;;;5057633;28;20752;-77
2023/08/28 01:03:57;;;;;;;2.47;1.83;;;12.10;99.90;;;;;;5057828;28;20179;-77
2023/08/28 01:07:04;;;;;;;6.80;2.37;;;12.10;99.90;;;;;;5055970;28;20207;-76
2023/08/28 01:10:07;;;;;;;6.60;2.00;;;12.00;99.90;;;;;;5052436;28;20670;-76
2023/08/28 01:13:02;;;;;;;10.97;2.20;;;12.00;99.90;;;;;;5051784;28;20207;-77
2023/08/28 01:15:30;;;;;;;4.63;1.70;;;11.90;99.90;;;;;;5056515;28;20596;-76
2023/08/28 01:18:00;;;;;;;7.00;1.73;;;11.90;99.90;;;;;;5055682;28;20171;-76
2023/08/28 01:20:28;;;;;;;7.17;1.80;;;11.90;99.90;;;;;;5055697;28;20585;-76
2023/08/28 01:22:57;;;;;;;4.90;1.67;;;11.80;99.90;;;;;;5055146;28;20675;-77
2023/08/28 01:25:24;;;;;;;6.30;2.13;;;11.80;99.90;;;;;;5055487;28;20194;-77
2023/08/28 01:27:51;;;;;;;5.33;2.23;;;11.80;99.90;;;;;;5055057;28;20191;-77
2023/08/28 01:30:18;;;;;;;3.10;2.00;;;11.80;99.90;;;;;;5055375;28;20164;-77
2023/08/28 01:32:45;;;;;;;6.60;3.13;;;11.70;99.90;;;;;;5055184;28;20691;-76
2023/08/28 01:35:12;;;;;;;4.63;2.00;;;11.70;99.90;;;;;;5054919;28;20176;-77
2023/08/28 01:38:08;;;;;;;2.63;2.07;;;11.70;99.90;;;;;;5054633;28;20183;-77
2023/08/28 01:40:43;;;;;;;6.77;2.17;;;11.60;99.90;;;;;;5054799;28;20187;-77
2023/08/28 01:43:12;;;;;;;8.17;2.60;;;11.70;99.90;;;;;;5054928;28;20199;-77
2023/08/28 01:45:39;;;;;;;11.63;2.40;;;11.60;99.90;;;;;;5054897;28;20500;-77
2023/08/28 01:48:07;;;;;;;5.50;2.30;;;11.60;99.90;;;;;;5055101;28;20223;-77
2023/08/28 01:50:34;;;;;;;3.83;2.20;;;11.60;99.90;;;;;;5054784;28;20218;-77
2023/08/28 01:52:59;;;;;;;6.07;2.80;;;11.60;99.90;;;;;;5054743;28;20241;-76
2023/08/28 01:55:43;;;;;;;6.60;3.00;;;11.60;99.90;;;;;;5054552;28;20168;-77
2023/08/28 01:58:08;;;;;;;5.13;2.53;;;11.50;99.90;;;;;;5054980;28;20219;-76
2023/08/28 02:00:34;;;;;;;8.30;2.73;;;11.50;99.90;;;;;;5055084;28;20286;-77
2023/08/28 02:02:59;;;;;;;4.60;2.30;;;11.50;99.90;;;;;;5052911;28;20191;-77
2023/08/28 02:05:26;;;;;;;6.30;2.70;;;11.50;99.90;;;;;;5054631;28;20168;-77
2023/08/28 02:07:52;;;;;;;3.97;2.27;;;11.50;99.90;;;;;;5054671;28;20174;-76
2023/08/28 02:10:17;;;;;;;6.20;2.90;;;11.50;99.90;;;;;;5054352;28;20186;-77
2023/08/28 02:12:43;;;;;;;7.20;2.63;;;11.40;99.90;;;;;;5054413;28;20191;-77
2023/08/28 02:15:09;;;;;;;4.13;2.80;;;11.40;99.90;;;;;;5054746;28;20580;-77
2023/08/28 02:17:34;;;;;;;4.03;2.87;;;11.40;99.90;;;;;;5054644;28;20168;-77
2023/08/28 02:20:00;;;;;;;3.83;2.70;;;11.40;99.90;;;;;;5054665;28;20593;-77
2023/08/28 02:22:25;;;;;;;6.57;2.80;;;11.40;99.90;;;;;;5054153;28;20206;-77
2023/08/28 02:24:51;;;;;;;4.37;2.93;;;11.30;99.90;;;;;;5054395;28;20245;-77
2023/08/28 02:27:16;;;;;;;8.87;2.90;;;11.30;99.90;;;;;;5054175;28;20199;-77
2023/08/28 02:29:42;;;;;;;4.23;2.87;;;11.40;99.90;;;;;;5053923;28;20253;-76
2023/08/28 02:32:07;;;;;;;4.53;3.20;;;11.40;99.90;;;;;;5054078;28;20191;-77
2023/08/28 02:34:33;;;;;;;7.27;3.03;;;11.40;99.90;;;;;;5053838;28;20172;-77
2023/08/28 02:36:58;;;;;;;4.20;2.37;;;11.40;99.90;;;;;;5054169;28;20203;-77
2023/08/28 02:39:24;;;;;;;4.13;2.93;;;11.40;99.90;;;;;;5053878;28;20218;-77
2023/08/28 02:41:49;;;;;;;7.57;3.00;;;11.40;99.90;;;;;;5053586;28;20226;-76
2023/08/28 02:44:15;;;;;;;4.57;2.73;;;11.40;99.90;;;;;;5053636;28;20202;-77
2023/08/28 02:46:40;;;;;;;4.83;2.90;;;11.40;99.90;;;;;;5053878;28;20206;-76
2023/08/28 02:49:06;;;;;;;8.37;2.73;;;11.30;99.90;;;;;;5053707;28;20171;-76
2023/08/28 02:51:32;;;;;;;10.97;2.50;;;11.30;99.90;;;;;;5053848;28;20206;-77
2023/08/28 02:53:58;;;;;;;14.83;2.63;;;11.40;99.90;;;;;;5053560;28;20310;-77
2023/08/28 02:56:26;;;;;;;11.00;2.70;;;11.30;99.90;;;;;;5052074;28;20217;-77
2023/08/28 02:58:53;;;;;;;4.70;2.57;;;11.30;99.90;;;;;;5053522;28;20214;-77
2023/08/28 03:01:19;;;;;;;6.30;2.77;;;11.30;99.90;;;;;;5053288;28;20199;-77
2023/08/28 03:03:46;;;;;;;2.93;2.30;;;11.20;99.90;;;;;;5052092;28;20186;-76
2023/08/28 03:06:12;;;;;;;9.50;3.10;;;11.30;99.90;;;;;;5053451;28;20198;-77
2023/08/28 03:08:38;;;;;;;7.90;2.67;;;11.20;99.90;;;;;;5053306;28;20180;-77
2023/08/28 03:11:03;;;;;;;10.37;2.47;;;11.20;99.90;;;;;;5053863;28;20693;-77
2023/08/28 03:13:29;;;;;;;5.03;2.43;;;11.10;99.90;;;;;;5055190;28;20194;-77
2023/08/28 03:15:54;;;;;;;8.10;2.97;;;11.10;99.90;;;;;;5055194;28;20191;-77
2023/08/28 03:18:20;;;;;;;8.97;2.90;;;11.10;99.90;;;;;;5053740;28;20232;-76
2023/08/28 03:20:46;;;;;;;6.87;3.17;;;11.00;99.90;;;;;;5053283;28;20527;-77
2023/08/28 03:23:11;;;;;;;6.77;3.00;;;11.10;99.90;;;;;;5052887;28;20623;-77
2023/08/28 03:25:37;;;;;;;8.40;2.87;;;11.00;99.90;;;;;;5052877;28;20171;-77
2023/08/28 03:28:07;;;;;;;5.70;3.53;;;11.00;99.90;;;;;;5052839;28;20184;-77
2023/08/28 03:30:32;;;;;;;6.83;3.97;;;11.00;99.90;;;;;;5052996;28;20172;-76
2023/08/28 03:32:58;;;;;;;7.43;4.60;;;11.10;99.90;;;;;;5051640;28;20274;-77
2023/08/28 03:35:23;;;;;;;6.63;5.07;;;11.10;99.90;;;;;;5052974;28;20195;-76
2023/08/28 03:37:49;;;;;;;7.00;5.87;;;11.10;99.90;;;;;;5052719;28;20171;-77
2023/08/28 03:40:14;;;;;;;5.90;4.70;;;11.20;99.90;;;;;;5052819;28;20258;-76
2023/08/28 03:42:40;;;;;;;9.33;5.23;;;11.20;99.90;;;;;;5052788;28;20214;-77
2023/08/28 03:45:06;;;;;;;7.30;5.03;;;11.40;99.90;;;;;;5052891;28;20259;-77
2023/08/28 03:47:31;;;;;;;5.37;4.87;;;11.20;99.90;;;;;;5052328;28;20194;-76
2023/08/28 03:49:57;;;;;;;7.10;5.00;;;11.20;99.90;;;;;;5052733;28;20168;-77
2023/08/28 03:52:22;;;;;;;10.97;5.00;;;11.20;99.90;;;;;;5052729;28;20190;-77
2023/08/28 03:54:48;;;;;;;5.87;4.87;;;11.20;99.90;;;;;;5052693;28;20178;-77
2023/08/28 03:57:13;;;;;;;10.43;5.30;;;11.20;99.90;;;;;;5052522;28;20176;-77
2023/08/28 03:59:39;;;;;;;9.23;4.90;;;11.20;99.90;;;;;;5052470;28;20176;-76
2023/08/28 04:02:04;;;;;;;7.73;5.87;;;11.20;99.90;;;;;;5051901;28;20272;-76
2023/08/28 04:04:30;;;;;;;6.47;5.77;;;11.20;99.90;;;;;;5052397;28;20179;-76
2023/08/28 04:06:58;;;;;;;9.60;6.00;;;11.20;99.90;;;;;;5052353;28;20205;-76
2023/08/28 04:09:23;;;;;;;7.10;6.23;;;11.30;99.90;;;;;;5052435;28;20171;-76
2023/08/28 04:11:49;;;;;;;8.57;6.00;;;11.30;99.90;;;;;;5052313;28;20187;-77
2023/08/28 04:14:14;;;;;;;8.20;6.23;;;11.30;99.90;;;;;;5052433;28;20218;-77
2023/08/28 04:16:40;;;;;;;7.30;6.30;;;11.30;99.90;;;;;;5052502;28;20171;-76
2023/08/28 04:19:05;;;;;;;7.03;6.30;;;11.30;99.90;;;;;;5052517;28;20242;-77
2023/08/28 04:21:31;;;;;;;8.27;6.77;;;11.30;99.90;;;;;;5052903;28;20643;-77
2023/08/28 04:23:57;;;;;;;9.70;6.93;;;11.30;99.90;;;;;;5052616;28;20177;-78
2023/08/28 04:26:22;;;;;;;7.43;5.93;;;11.30;99.90;;;;;;5052861;28;20192;-76
2023/08/28 04:28:48;;;;;;;8.87;6.47;;;11.30;99.90;;;;;;5052098;28;20196;-76
2023/08/28 04:31:13;;;;;;;14.53;6.30;;;11.30;99.90;;;;;;5052381;28;20184;-76
2023/08/28 04:33:39;;;;;;;8.27;5.70;;;11.30;99.90;;;;;;5052098;28;20167;-76
2023/08/28 04:36:05;;;;;;;8.03;5.00;;;11.30;99.90;;;;;;5050912;28;20175;-76
2023/08/28 04:38:30;;;;;;;5.87;5.03;;;11.30;99.90;;;;;;5051788;28;20172;-76
2023/08/28 04:40:56;;;;;;;10.10;5.07;;;11.30;99.90;;;;;;5051740;28;20187;-77
2023/08/28 04:43:21;;;;;;;9.57;5.63;;;11.30;99.90;;;;;;5052549;28;20207;-79
2023/08/28 04:45:50;;;;;;;6.93;5.30;;;11.30;99.90;;;;;;5053037;28;20225;-78
2023/08/28 04:48:16;;;;;;;10.43;5.47;;;11.20;99.90;;;;;;5055369;28;20190;-78
2023/08/28 04:50:41;;;;;;;5.87;5.07;;;11.20;99.90;;;;;;5052695;28;20645;-77
2023/08/28 04:53:07;;;;;;;7.50;5.10;;;11.20;99.90;;;;;;5054192;28;20195;-77
2023/08/28 04:55:33;;;;;;;6.40;4.93;;;11.10;99.90;;;;;;5054623;28;20214;-78
2023/08/28 04:57:58;;;;;;;8.80;4.63;;;11.10;99.90;;;;;;5055725;28;20168;-77
2023/08/28 05:00:24;;;;;;;7.57;5.10;;;11.10;99.90;;;;;;5055923;28;20187;-78
2023/08/28 05:02:49;;;;;;;6.03;4.83;;;11.10;99.90;;;;;;5052561;28;20188;-78
2023/08/28 05:05:15;;;;;;;7.20;4.90;;;11.10;99.90;;;;;;5055964;28;20168;-78
2023/08/28 05:07:41;;;;;;;13.20;5.43;;;11.10;99.90;;;;;;5058183;28;20202;-78
2023/08/28 05:10:06;;;;;;;5.50;5.00;;;11.00;99.90;;;;;;5054856;28;20262;-76
2023/08/28 05:12:32;;;;;;;6.77;4.87;;;11.00;99.90;;;;;;5055468;28;20191;-78
2023/08/28 05:14:57;;;;;;;9.07;5.70;;;11.00;99.90;;;;;;5059426;28;20666;-78
2023/08/28 05:17:23;;;;;;;9.93;5.43;;;11.00;99.90;;;;;;5059570;28;20176;-78
2023/08/28 05:19:48;;;;;;;7.47;5.17;;;11.00;99.90;;;;;;5060520;28;20179;-78
2023/08/28 05:22:14;;;;;;;8.73;5.37;;;11.10;99.90;;;;;;5064289;28;20210;-78
2023/08/28 05:24:40;;;;;;;9.90;5.60;;;11.10;99.90;;;;;;5068825;28;20257;-78
2023/08/28 05:27:05;;;;;;;5.80;4.97;;;11.10;99.90;;;;;;5062435;28;20294;-78
2023/08/28 05:29:31;;;;;;;6.93;5.63;;;11.10;99.90;;;;;;5057665;28;20187;-79
2023/08/28 05:31:56;;;;;;;10.17;5.63;;;11.10;99.90;;;;;;5059061;28;20199;-79
2023/08/28 05:34:22;;;;;;;8.00;5.77;;;11.10;99.90;;;;;;5062127;28;20180;-80
2023/08/28 05:36:48;;;;;;;7.40;5.60;;;11.20;99.90;;;;;;5062921;28;20176;-83
2023/08/28 05:39:13;;;;;;;6.67;5.70;;;11.20;99.90;;;;;;5062702;28;20179;-82
2023/08/28 05:41:39;;;;;;;7.10;5.90;;;11.20;99.90;;;;;;5063844;28;20694;-85
2023/08/28 05:44:04;;;;;;;6.33;5.53;;;11.30;99.90;;;;;;5062157;28;20635;-84
2023/08/28 05:46:30;;;;;;;9.90;6.57;;;11.30;99.90;;;;;;5062140;28;20613;-85
2023/08/28 05:48:55;;;;;;;8.77;5.93;;;11.40;99.90;;;;;;5063260;28;20186;-83
2023/08/28 05:51:21;;;;;;;10.50;5.90;;;11.40;99.90;;;;;;5065392;28;20227;-85
2023/08/28 05:53:47;;;;;;;10.23;5.73;;;11.50;99.90;;;;;;5065470;28;20247;-82
2023/08/28 05:56:12;;;;;;;8.43;5.83;;;11.50;99.90;;;;;;5061602;28;20698;-84
2023/08/28 05:58:38;;;;;;;6.50;5.67;;;11.60;99.90;;;;;;5063045;28;20209;-84
2023/08/28 06:01:03;;;;;;;11.63;5.67;;;11.60;99.90;;;;;;5063837;28;20214;-83
2023/08/28 06:03:29;;;;;;;8.47;5.93;;;11.70;99.90;;;;;;5063606;28;20176;-82
2023/08/28 06:05:55;;;;;;;6.47;5.17;;;11.70;99.90;;;;;;5061397;28;20619;-80
2023/08/28 06:08:20;;;;;;;10.57;5.63;;;11.70;99.90;;;;;;5062115;28;20198;-82
2023/08/28 06:10:46;;;;;;;7.73;6.07;;;11.80;99.90;;;;;;5063501;28;20172;-80
2023/08/28 06:13:12;;;;;;;7.27;6.33;;;11.80;99.90;;;;;;5062970;28;20215;-80
2023/08/28 06:15:37;;;;;;;6.83;6.13;;;11.90;99.90;;;;;;5063379;28;20719;-82
2023/08/28 06:18:04;;;;;;;7.20;6.50;;;11.90;99.90;;;;;;5062584;28;20183;-81
2023/08/28 06:20:30;;;;;;;9.83;6.87;;;12.00;99.90;;;;;;5060977;28;20172;-81
2023/08/28 06:22:56;;;;;;;8.00;7.00;;;12.10;99.90;;;;;;5061333;28;20710;-82
2023/08/28 06:25:22;;;;;;;7.90;7.10;;;12.00;99.90;;;;;;5054204;28;20168;-79
2023/08/28 06:27:48;;;;;;;14.27;7.60;;;12.20;99.90;;;;;;5043279;28;20215;-79
2023/08/28 06:30:14;;;;;;;9.33;8.03;;;12.20;99.90;;;;;;5044177;28;20160;-80
2023/08/28 06:32:39;;;;;;;8.27;7.30;;;12.20;99.90;;;;;;5045202;28;20184;-80
2023/08/28 06:35:06;;;;;;;8.53;7.23;;;12.30;99.90;;;;;;5044634;28;20195;-81
2023/08/28 06:37:31;;;;;;;8.57;6.77;;;12.30;99.90;;;;;;5044632;28;20596;-82
2023/08/28 06:39:57;;;;;;;10.40;7.27;;;12.40;99.90;;;;;;5042725;28;20192;-82
2023/08/28 06:42:25;;;;;;;9.17;7.93;;;12.40;99.90;;;;;;5044165;28;20282;-84
2023/08/28 06:45:38;;;;;;;11.50;7.83;;;12.50;99.90;;;;;;5042579;28;20274;-84
2023/08/28 06:49:17;;;;;;;7.97;7.03;;;12.50;99.90;;;;;;5040533;28;20184;-83
2023/08/28 06:56:35;;;;;;;9.23;6.80;;;12.60;99.90;;;;;;4998099;28;20213;-84
2023/08/28 06:59:01;;;;;;;7.60;6.90;;;12.70;99.90;;;;;;4982662;28;20196;-84
2023/08/28 07:01:27;;;;;;;13.20;7.63;;;12.70;99.90;;;;;;4979519;28;20213;-84
2023/08/28 07:03:55;;;;;;;9.33;7.23;;;12.70;99.90;;;;;;4981936;28;20170;-84
2023/08/28 07:06:23;;;;;;;10.10;7.40;;;12.80;99.90;;;;;;4963802;28;20202;-84
2023/08/28 07:08:48;;;;;;;12.00;8.50;;;12.70;99.90;;;;;;4962273;28;20233;-84
2023/08/28 07:11:41;;;;;;;10.73;8.83;;;13.00;99.90;;;;;;4962194;28;20671;-84
2023/08/28 07:14:10;;;;;;;11.47;9.60;;;12.80;99.90;;;;;;4964054;28;20206;-84
2023/08/28 07:16:41;;;;;;;10.37;9.27;;;12.90;99.90;;;;;;4962259;28;20585;-84
2023/08/28 07:19:07;;;;;;;16.57;11.40;;;13.00;99.90;;;;;;4962599;28;20258;-84
2023/08/28 07:21:35;;;;;;;16.50;13.03;;;13.10;99.90;;;;;;4976860;28;20229;-85
2023/08/28 07:24:07;;;;;;;16.97;13.63;;;13.30;99.90;;;;;;4977402;28;20320;-85
2023/08/28 07:27:23;;;;;;;;;;;;;;;;;;;;;
2023/08/28 07:29:49;;;;;;;19.13;14.13;;;13.40;99.90;;;;;;4979266;28;20261;-85
2023/08/28 07:32:14;;;;;;;19.67;13.90;;;13.50;99.90;;;;;;4963093;28;20221;-83
2023/08/28 07:34:40;;;;;;;18.23;13.23;;;13.60;99.90;;;;;;4990895;28;20246;-84
2023/08/28 07:37:06;;;;;;;17.53;14.33;;;13.80;99.90;;;;;;4993472;28;20169;-85
2023/08/28 07:39:31;;;;;;;20.50;13.80;;;13.90;99.90;;;;;;4977945;28;20193;-85
2023/08/28 07:42:00;;;;;;;17.47;14.07;;;13.80;99.90;;;;;;4977359;28;20776;-85
2023/08/28 07:44:26;;;;;;;13.53;12.00;;;14.00;99.90;;;;;;4959346;28;20189;-85
2023/08/28 07:47:59;;;;;;;13.57;11.50;;;14.10;99.90;;;;;;4975133;28;20202;-85
2023/08/28 07:50:26;;;;;;;11.97;10.00;;;14.10;99.90;;;;;;4815605;29;20192;-79
2023/08/28 07:52:51;;;;;;;13.57;10.43;;;14.10;99.90;;;;;;4901856;28;20190;-79
2023/08/28 07:55:17;;;;;;;11.00;9.20;;;14.10;99.90;;;;;;4991488;28;20304;-79
2023/08/28 07:57:42;;;;;;;12.23;9.67;;;14.20;99.90;;;;;;4971839;28;20182;-79
2023/08/28 08:00:13;;;;;;;11.80;9.40;;;14.40;99.90;;;;;;4991262;28;20198;-79
2023/08/28 08:02:38;;;;;;;10.87;9.60;;;14.30;99.90;;;;;;4990483;28;20190;-79
2023/08/28 08:05:04;;;;;;;10.53;9.27;;;14.40;99.90;;;;;;4990009;28;20200;-79
2023/08/28 08:07:32;;;;;;;12.00;10.33;;;14.40;99.90;;;;;;4972256;28;20213;-79
2023/08/28 08:09:58;;;;;;;15.93;10.87;;;14.50;99.90;;;;;;4990632;28;20552;-80
2023/08/28 08:12:23;;;;;;;13.97;9.30;;;14.60;99.90;;;;;;4990273;28;20229;-79
2023/08/28 08:14:49;;;;;;;12.50;9.40;;;14.70;99.90;;;;;;4988801;28;20202;-79
2023/08/28 08:17:14;;;;;;;10.87;9.40;;;14.70;99.90;;;;;;4973227;28;20221;-79
2023/08/28 08:19:40;;;;;;;15.87;10.30;;;14.80;99.90;;;;;;4974003;28;20190;-79
2023/08/28 08:22:06;;;;;;;21.17;14.43;;;14.80;99.90;;;;;;4989390;28;20293;-80
2023/08/28 08:24:32;;;;;;;23.43;16.03;;;14.90;99.90;;;;;;4984545;28;20197;-81
2023/08/28 08:26:58;;;;;;;20.90;14.53;;;15.10;99.90;;;;;;4962821;28;20209;-79
2023/08/28 08:29:24;;;;;;;19.10;12.57;;;15.00;99.90;;;;;;4987313;28;20174;-79
2023/08/28 08:31:51;;;;;;;19.80;12.73;;;15.00;99.90;;;;;;4986418;28;20262;-80
2023/08/28 08:34:18;;;;;;;21.37;12.63;;;15.20;99.90;;;;;;4968141;28;20237;-81
2023/08/28 08:36:44;;;;;;;21.27;12.57;;;15.10;99.90;;;;;;4970339;28;20182;-80
2023/08/28 08:39:09;;;;;;;12.00;9.40;;;15.40;99.90;;;;;;4967428;28;20189;-80
2023/08/28 08:41:35;;;;;;;12.27;9.23;;;15.20;99.90;;;;;;4970426;28;20288;-79
2023/08/28 08:44:01;;;;;;;15.47;10.60;;;15.30;99.90;;;;;;4969832;28;20244;-79
2023/08/28 08:46:27;;;;;;;15.40;9.87;;;15.40;99.90;;;;;;4966382;28;20210;-79
2023/08/28 08:48:56;;;;;;;14.83;9.37;;;15.50;99.90;;;;;;4973075;28;20188;-80
2023/08/28 08:51:25;;;;;;;15.47;9.00;;;15.70;99.90;;;;;;4973180;28;20209;-81
2023/08/28 08:54:04;;;;;;;12.70;8.97;;;15.70;99.90;;;;;;4988118;28;20178;-79
2023/08/28 08:56:32;;;;;;;11.50;8.93;;;15.70;99.90;;;;;;4972684;28;20186;-80
2023/08/28 08:58:59;;;;;;;14.23;8.83;;;15.80;99.90;;;;;;4973277;28;20209;-80
2023/08/28 09:01:28;;;;;;;10.83;7.00;;;15.80;99.90;;;;;;4993223;28;20202;-81
2023/08/28 09:03:53;;;;;;;8.77;6.53;;;15.90;99.90;;;;;;4988034;28;20174;-79
2023/08/28 09:06:19;;;;;;;9.47;6.47;;;16.00;99.90;;;;;;4968733;28;20218;-80
2023/08/28 09:08:45;;;;;;;7.90;7.03;;;16.00;99.90;;;;;;4987815;28;20178;-80
2023/08/28 09:11:11;;;;;;;11.87;7.50;;;16.10;99.90;;;;;;4988028;28;20285;-82
2023/08/28 09:13:38;;;;;;;14.00;7.70;;;16.30;99.90;;;;;;4970205;28;20171;-80
2023/08/28 09:16:04;;;;;;;7.87;5.63;;;16.20;99.90;;;;;;4989359;28;20174;-80
2023/08/28 09:18:30;;;;;;;10.67;4.90;;;16.30;99.90;;;;;;4968156;28;20205;-79
2023/08/28 09:21:10;;;;;;;5.97;4.33;;;16.40;99.90;;;;;;4970907;28;20265;-80
2023/08/28 09:23:53;;;;;;;8.13;5.37;;;16.50;99.90;;;;;;4984384;28;20170;-82
2023/08/28 09:26:20;;;;;;;5.83;3.23;;;16.70;99.90;;;;;;4971102;28;20206;-80
2023/08/28 09:29:04;;;;;;;4.70;1.60;;;16.60;99.90;;;;;;4986998;28;20178;-81
2023/08/28 09:31:47;;;;;;;5.60;1.63;;;16.80;99.90;;;;;;5023846;23;20626;-80
2023/08/28 09:34:36;;;;;;;3.77;2.57;;;16.80;99.90;;;;;;4986716;28;20186;-80
2023/08/28 09:37:03;;;;;;;5.00;3.20;;;17.00;99.90;;;;;;4970910;28;20182;-80
2023/08/28 09:39:29;;;;;;;3.53;2.07;;;17.20;99.90;;;;;;4971444;28;20191;-80
2023/08/28 09:41:54;;;;;;;6.37;2.53;;;17.10;99.90;;;;;;4989641;28;20747;-80
2023/08/28 09:44:20;;;;;;;4.03;2.30;;;17.40;99.90;;;;;;4976222;28;20182;-80
2023/08/28 09:46:53;;;;;;;3.30;1.60;;;17.20;99.90;;;;;;4994270;28;20217;-80
2023/08/28 09:49:25;;;;;;;5.37;1.90;;;17.30;99.90;;;;;;4971513;28;20194;-80
2023/08/28 09:51:51;;;;;;;4.30;2.00;;;17.30;99.90;;;;;;4986111;28;20253;-80
2023/08/28 09:54:28;;;;;;;3.93;2.33;;;17.80;99.90;;;;;;4968628;28;20587;-80
2023/08/28 09:57:06;;;;;;;5.13;2.23;;;17.40;99.90;;;;;;4968763;28;20174;-80
2023/08/28 09:59:32;;;;;;;3.83;2.13;;;17.30;99.90;;;;;;4968133;28;20178;-82
2023/08/28 10:01:57;;;;;;;2.47;2.17;;;17.20;99.90;;;;;;4986828;28;20198;-83
2023/08/28 10:04:23;;;;;;;3.70;2.47;;;17.50;99.90;;;;;;4969591;28;20178;-82
2023/08/28 10:06:50;;;;;;;4.17;2.93;;;17.30;99.90;;;;;;4973050;28;20273;-80
2023/08/28 10:09:19;;;;;;;3.03;2.30;;;17.30;99.90;;;;;;4989642;28;20178;-81
2023/08/28 10:11:45;;;;;;;4.03;2.60;;;17.30;99.90;;;;;;4970893;28;20274;-81
2023/08/28 10:14:12;;;;;;;5.53;2.90;;;17.40;99.90;;;;;;4989505;28;20251;-83
2023/08/28 10:16:49;;;;;;;4.70;2.40;;;17.40;99.90;;;;;;4989381;28;20189;-80
2023/08/28 10:19:37;;;;;;;5.63;2.40;;;17.50;99.90;;;;;;4970715;28;20619;-82
2023/08/28 10:22:06;;;;;;;5.23;2.90;;;17.60;99.90;;;;;;4968423;28;20674;-80
2023/08/28 10:25:14;;;;;;;4.37;2.37;;;17.50;99.90;;;;;;4988363;28;20195;-83
2023/08/28 10:27:43;;;;;;;4.50;2.43;;;17.30;99.90;;;;;;4969695;28;20238;-83
2023/08/28 10:30:28;;;;;;;4.27;1.80;;;17.60;99.90;;;;;;4968027;28;20240;-83
2023/08/28 10:32:55;;;;;;;4.43;2.50;;;17.60;99.90;;;;;;4968913;28;20214;-83
2023/08/28 10:35:25;;;;;;;3.20;1.70;;;17.60;99.90;;;;;;4969664;28;20186;-84
2023/08/28 10:37:52;;;;;;;6.00;2.00;;;17.70;99.90;;;;;;4970756;28;20208;-83
2023/08/28 10:40:20;;;;;;;5.33;2.80;;;17.80;99.90;;;;;;4970572;28;20206;-82
2023/08/28 10:42:55;;;;;;;6.33;2.50;;;17.80;99.90;;;;;;4972736;28;20203;-82
2023/08/28 10:45:21;;;;;;;4.97;2.37;;;18.30;99.90;;;;;;4972828;28;20237;-82
2023/08/28 10:47:50;;;;;;;4.93;2.53;;;17.90;99.90;;;;;;4970344;28;20615;-82
2023/08/28 10:50:16;;;;;;;3.37;2.60;;;18.10;99.90;;;;;;4972986;28;20189;-82
2023/08/28 10:52:41;;;;;;;5.13;2.80;;;18.20;99.90;;;;;;4973494;28;20198;-83
2023/08/28 10:55:09;;;;;;;6.20;3.20;;;18.30;99.90;;;;;;4974080;28;20246;-82
2023/08/28 10:57:44;;;;;;;9.00;3.40;;;18.30;99.90;;;;;;4989301;28;20170;-83
2023/08/28 11:00:15;;;;;;;6.03;3.23;;;18.30;99.90;;;;;;4971115;28;20177;-84
2023/08/28 11:03:15;;;;;;;7.03;2.80;;;18.40;1.00;;;;;;4972636;28;20208;-83
2023/08/28 11:05:43;;;;;;;7.33;3.03;;;18.50;1.00;;;;;;4974043;28;20189;-83
2023/08/28 11:08:11;;;;;;;4.70;2.20;;;18.50;1.00;;;;;;4971088;28;20212;-83
2023/08/28 11:10:49;;;;;;;3.10;1.93;;;18.60;1.00;;;;;;4987894;28;20170;-82
2023/08/28 11:13:23;;;;;;;2.77;2.00;;;18.60;1.00;;;;;;4970172;28;20190;-83
2023/08/28 11:16:01;;;;;;;1.27;1.07;;;18.70;1.00;;;;;;4970448;28;20611;-83
2023/08/28 11:18:28;;;;;;;0.80;0.80;;;18.70;99.90;;;;;;4971508;28;20190;-83
2023/08/28 11:21:03;;;;;;;1.13;0.97;;;18.80;99.90;;;;;;4969570;28;20251;-84
2023/08/28 11:23:41;;;;;;;2.00;1.20;;;18.80;99.90;;;;;;4971488;28;20170;-83
2023/08/28 11:26:27;;;;;;;2.10;1.10;;;18.80;99.90;;;;;;4969664;28;20195;-83
2023/08/28 11:28:53;;;;;;;4.77;1.20;;;19.20;99.90;;;;;;4970189;28;20178;-83
2023/08/28 11:31:41;;;;;;;1.37;1.00;;;18.90;99.90;;;;;;4967719;28;20693;-81
2023/08/28 11:34:13;;;;;;;2.07;1.03;;;19.30;99.90;;;;;;4967686;28;20234;-81
2023/08/28 11:36:39;;;;;;;2.80;1.30;;;19.10;98.30;;;;;;4964625;28;20225;-83
2023/08/28 11:39:14;;;;;;;4.33;1.30;;;19.00;54.20;;;;;;4984805;28;20174;-80
2023/08/28 11:41:41;;;;;;;4.30;1.30;;;19.30;94.10;;;;;;4998853;28;20216;-82
2023/08/28 11:44:11;;;;;;;1.70;1.03;;;19.30;99.90;;;;;;4967024;28;20182;-79
2023/08/28 11:46:36;;;;;;;2.63;1.00;;;19.40;99.90;;;;;;4989388;28;20209;-79
2023/08/28 11:49:06;;;;;;;4.23;1.07;;;19.50;99.90;;;;;;4988885;28;20174;-81
2023/08/28 11:51:36;;;;;;;1.77;1.00;;;19.80;99.90;;;;;;4972506;28;20613;-80
2023/08/28 11:54:03;;;;;;;2.63;1.00;;;19.50;96.50;;;;;;4972973;28;20193;-77
2023/08/28 11:56:33;;;;;;;5.47;1.37;;;19.70;99.90;;;;;;4984562;28;20198;-80
2023/08/28 11:58:59;;;;;;;3.67;1.40;;;19.80;1.00;;;;;;4992178;28;20229;-78
2023/08/28 12:01:27;;;;;;;4.40;1.30;;;19.60;47.20;;;;;;4991562;28;20194;-79
2023/08/28 12:04:05;;;;;;;3.63;1.20;;;19.60;91.90;;;;;;4991135;28;20194;-79
2023/08/28 12:06:37;;;;;;;2.70;1.10;;;19.50;71.20;;;;;;4975946;28;20216;-78
2023/08/28 12:09:04;;;;;;;3.10;1.10;;;19.50;99.90;;;;;;4974557;28;20167;-78
2023/08/28 12:11:30;;;;;;;3.67;1.47;;;19.50;99.90;;;;;;4992363;28;20182;-79
2023/08/28 12:13:56;;;;;;;3.87;1.50;;;19.40;99.90;;;;;;4992085;28;20166;-79
2023/08/28 12:16:23;;;;;;;1.47;1.00;;;19.50;99.90;;;;;;4991548;28;20188;-78
2023/08/28 12:18:51;;;;;;;5.00;1.57;;;19.40;99.90;;;;;;4972627;28;20186;-78
2023/08/28 12:21:38;;;;;;;5.17;1.00;;;19.60;99.90;;;;;;4958444;28;20681;-79
2023/08/28 12:24:06;;;;;;;3.03;0.93;;;19.60;99.90;;;;;;4995591;28;20525;-79
2023/08/28 12:26:33;;;;;;;2.63;1.20;;;19.70;99.90;;;;;;4995935;28;20193;-78
2023/08/28 12:29:00;;;;;;;2.03;1.10;;;19.80;99.90;;;;;;5002167;28;20185;-79
2023/08/28 12:31:27;;;;;;;3.80;1.30;;;19.80;99.90;;;;;;5014086;28;20201;-78
2023/08/28 12:33:55;;;;;;;1.73;1.10;;;19.90;84.70;;;;;;5013427;28;20173;-78
2023/08/28 12:36:33;;;;;;;2.57;1.20;;;19.90;99.90;;;;;;5005517;28;20193;-79
2023/08/28 12:38:59;;;;;;;3.27;1.13;;;20.00;69.60;;;;;;4993433;28;20170;-78
2023/08/28 12:41:24;;;;;;;3.57;1.43;;;19.80;91.30;;;;;;4976946;28;20240;-79
2023/08/28 12:43:50;;;;;;;2.00;1.13;;;19.90;11.60;;;;;;4976713;28;20221;-78
2023/08/28 12:46:15;;;;;;;2.60;1.20;;;19.90;8.10;;;;;;4995695;28;20265;-78
2023/08/28 12:48:43;;;;;;;1.83;1.07;;;19.90;44.30;;;;;;4991530;28;20273;-78
2023/08/28 12:51:09;;;;;;;4.40;1.30;;;19.80;99.90;;;;;;4991148;28;20170;-79
2023/08/28 12:53:34;;;;;;;4.53;1.20;;;19.90;99.90;;;;;;4992897;28;20175;-78
2023/08/28 12:56:00;;;;;;;2.77;1.90;;;20.00;99.90;;;;;;4976316;28;20256;-78
2023/08/28 12:58:25;;;;;;;2.93;1.70;;;19.90;99.90;;;;;;4991420;28;20248;-80